sensor_id;sensor_type;location;lat;lon;timestamp;P1;durP1;ratioP1;P2;durP2;ratioP2
73276;SDS011;61501;43.316;5.372;2023-08-06T00:00:17;1.85;;;1.08;;
73276;SDS011;61501;43.316;5.372;2023-08-06T00:02:42;1.95;;;1.05;;
73276;SDS011;61501;43.316;5.372;2023-08-06T00:05:08;3.08;;;1.08;;
73276;SDS011;61501;43.316;5.372;2023-08-06T00:07:34;2.42;;;1.10;;
73276;SDS011;61501;43.316;5.372;2023-08-06T00:09:59;2.13;;;1.17;;
73276;SDS011;61501;43.316;5.372;2023-08-06T00:12:25;1.52;;;1.00;;
73276;SDS011;61501;43.316;5.372;2023-08-06T00:14:51;1.33;;;0.90;;
73276;SDS011;61501;43.316;5.372;2023-08-06T00:17:17;1.45;;;1.00;;
73276;SDS011;61501;43.316;5.372;2023-08-06T00:19:43;1.77;;;1.13;;
73276;SDS011;61501;43.316;5.372;2023-08-06T00:22:09;2.83;;;1.10;;
73276;SDS011;61501;43.316;5.372;2023-08-06T00:24:35;1.95;;;1.30;;
73276;SDS011;61501;43.316;5.372;2023-08-06T00:27:01;1.45;;;1.00;;
73276;SDS011;61501;43.316;5.372;2023-08-06T00:29:27;2.25;;;1.20;;
73276;SDS011;61501;43.316;5.372;2023-08-06T00:31:54;1.80;;;1.17;;
73276;SDS011;61501;43.316;5.372;2023-08-06T00:34:19;1.92;;;1.27;;
73276;SDS011;61501;43.316;5.372;2023-08-06T00:36:45;1.38;;;1.08;;
73276;SDS011;61501;43.316;5.372;2023-08-06T00:39:11;2.55;;;1.15;;
73276;SDS011;61501;43.316;5.372;2023-08-06T00:41:37;2.30;;;1.10;;
73276;SDS011;61501;43.316;5.372;2023-08-06T00:44:02;1.88;;;1.05;;
73276;SDS011;61501;43.316;5.372;2023-08-06T00:46:29;2.13;;;1.10;;
73276;SDS011;61501;43.316;5.372;2023-08-06T00:48:55;2.35;;;1.15;;
73276;SDS011;61501;43.316;5.372;2023-08-06T00:51:21;1.77;;;1.23;;
73276;SDS011;61501;43.316;5.372;2023-08-06T00:53:48;2.78;;;1.15;;
73276;SDS011;61501;43.316;5.372;2023-08-06T00:56:14;1.55;;;0.90;;
73276;SDS011;61501;43.316;5.372;2023-08-06T00:58:40;2.00;;;1.30;;
73276;SDS011;61501;43.316;5.372;2023-08-06T01:01:06;1.67;;;1.00;;
73276;SDS011;61501;43.316;5.372;2023-08-06T01:03:32;2.90;;;1.38;;
73276;SDS011;61501;43.316;5.372;2023-08-06T01:05:58;2.10;;;1.00;;
73276;SDS011;61501;43.316;5.372;2023-08-06T01:11:38;4.40;;;1.38;;
73276;SDS011;61501;43.316;5.372;2023-08-06T01:14:28;4.85;;;1.50;;
73276;SDS011;61501;43.316;5.372;2023-08-06T01:17:00;3.90;;;1.50;;
73276;SDS011;61501;43.316;5.372;2023-08-06T01:19:27;6.43;;;1.52;;
73276;SDS011;61501;43.316;5.372;2023-08-06T01:21:52;2.53;;;1.23;;
73276;SDS011;61501;43.316;5.372;2023-08-06T01:24:18;2.95;;;1.50;;
73276;SDS011;61501;43.316;5.372;2023-08-06T01:26:45;4.13;;;1.17;;
73276;SDS011;61501;43.316;5.372;2023-08-06T01:32:11;2.17;;;1.30;;
73276;SDS011;61501;43.316;5.372;2023-08-06T01:34:39;1.63;;;1.20;;
73276;SDS011;61501;43.316;5.372;2023-08-06T01:37:06;2.40;;;1.30;;
73276;SDS011;61501;43.316;5.372;2023-08-06T01:39:33;2.88;;;1.65;;
73276;SDS011;61501;43.316;5.372;2023-08-06T01:41:59;3.65;;;1.50;;
73276;SDS011;61501;43.316;5.372;2023-08-06T01:44:32;5.13;;;1.55;;
73276;SDS011;61501;43.316;5.372;2023-08-06T01:46:57;3.47;;;1.50;;
73276;SDS011;61501;43.316;5.372;2023-08-06T01:49:23;2.63;;;1.35;;
73276;SDS011;61501;43.316;5.372;2023-08-06T01:51:49;2.42;;;1.15;;
73276;SDS011;61501;43.316;5.372;2023-08-06T01:54:14;2.28;;;1.20;;
73276;SDS011;61501;43.316;5.372;2023-08-06T01:56:40;2.03;;;1.20;;
73276;SDS011;61501;43.316;5.372;2023-08-06T01:59:05;1.23;;;1.02;;
73276;SDS011;61501;43.316;5.372;2023-08-06T02:01:31;3.28;;;1.33;;
73276;SDS011;61501;43.316;5.372;2023-08-06T02:03:57;1.45;;;1.10;;
73276;SDS011;61501;43.316;5.372;2023-08-06T02:06:22;3.20;;;1.50;;
73276;SDS011;61501;43.316;5.372;2023-08-06T02:08:48;1.65;;;1.08;;
73276;SDS011;61501;43.316;5.372;2023-08-06T02:11:13;1.75;;;1.00;;
73276;SDS011;61501;43.316;5.372;2023-08-06T02:13:39;1.77;;;1.00;;
73276;SDS011;61501;43.316;5.372;2023-08-06T02:16:06;2.83;;;1.30;;
73276;SDS011;61501;43.316;5.372;2023-08-06T02:18:33;2.63;;;1.20;;
73276;SDS011;61501;43.316;5.372;2023-08-06T02:20:59;2.47;;;1.20;;
73276;SDS011;61501;43.316;5.372;2023-08-06T02:23:25;3.38;;;1.42;;
73276;SDS011;61501;43.316;5.372;2023-08-06T02:26:03;3.67;;;1.45;;
73276;SDS011;61501;43.316;5.372;2023-08-06T02:28:30;1.95;;;1.10;;
73276;SDS011;61501;43.316;5.372;2023-08-06T02:30:56;2.67;;;1.33;;
73276;SDS011;61501;43.316;5.372;2023-08-06T02:33:22;3.33;;;1.25;;
73276;SDS011;61501;43.316;5.372;2023-08-06T02:35:48;2.28;;;1.02;;
73276;SDS011;61501;43.316;5.372;2023-08-06T02:38:13;3.00;;;1.10;;
73276;SDS011;61501;43.316;5.372;2023-08-06T02:40:43;4.80;;;1.15;;
73276;SDS011;61501;43.316;5.372;2023-08-06T02:43:12;1.42;;;1.10;;
73276;SDS011;61501;43.316;5.372;2023-08-06T02:45:38;2.45;;;1.08;;
73276;SDS011;61501;43.316;5.372;2023-08-06T02:48:04;3.47;;;1.27;;
73276;SDS011;61501;43.316;5.372;2023-08-06T02:50:29;2.97;;;0.98;;
73276;SDS011;61501;43.316;5.372;2023-08-06T02:52:55;2.63;;;1.05;;
73276;SDS011;61501;43.316;5.372;2023-08-06T02:55:21;5.88;;;1.33;;
73276;SDS011;61501;43.316;5.372;2023-08-06T02:57:46;2.83;;;1.08;;
73276;SDS011;61501;43.316;5.372;2023-08-06T03:00:12;2.22;;;1.33;;
73276;SDS011;61501;43.316;5.372;2023-08-06T03:02:38;2.30;;;0.93;;
73276;SDS011;61501;43.316;5.372;2023-08-06T03:05:03;2.33;;;1.35;;
73276;SDS011;61501;43.316;5.372;2023-08-06T03:07:31;2.85;;;1.15;;
73276;SDS011;61501;43.316;5.372;2023-08-06T03:09:58;2.70;;;1.38;;
73276;SDS011;61501;43.316;5.372;2023-08-06T03:12:26;2.72;;;1.30;;
73276;SDS011;61501;43.316;5.372;2023-08-06T03:14:52;3.42;;;1.10;;
73276;SDS011;61501;43.316;5.372;2023-08-06T03:17:17;2.55;;;1.10;;
73276;SDS011;61501;43.316;5.372;2023-08-06T03:19:43;2.28;;;1.27;;
73276;SDS011;61501;43.316;5.372;2023-08-06T03:22:12;2.35;;;1.30;;
73276;SDS011;61501;43.316;5.372;2023-08-06T03:24:38;2.47;;;1.15;;
73276;SDS011;61501;43.316;5.372;2023-08-06T03:27:07;2.33;;;1.17;;
73276;SDS011;61501;43.316;5.372;2023-08-06T03:29:32;1.58;;;1.20;;
73276;SDS011;61501;43.316;5.372;2023-08-06T03:31:58;1.10;;;1.00;;
73276;SDS011;61501;43.316;5.372;2023-08-06T03:34:23;2.00;;;1.17;;
73276;SDS011;61501;43.316;5.372;2023-08-06T03:36:49;2.33;;;1.20;;
73276;SDS011;61501;43.316;5.372;2023-08-06T03:39:15;3.10;;;1.35;;
73276;SDS011;61501;43.316;5.372;2023-08-06T03:41:40;2.42;;;1.10;;
73276;SDS011;61501;43.316;5.372;2023-08-06T03:44:06;2.03;;;1.17;;
73276;SDS011;61501;43.316;5.372;2023-08-06T03:46:31;3.95;;;1.30;;
73276;SDS011;61501;43.316;5.372;2023-08-06T03:48:59;1.13;;;0.95;;
73276;SDS011;61501;43.316;5.372;2023-08-06T03:51:25;2.00;;;1.10;;
73276;SDS011;61501;43.316;5.372;2023-08-06T03:53:50;2.63;;;1.00;;
73276;SDS011;61501;43.316;5.372;2023-08-06T03:56:16;1.65;;;1.10;;
73276;SDS011;61501;43.316;5.372;2023-08-06T03:58:41;2.25;;;1.30;;
73276;SDS011;61501;43.316;5.372;2023-08-06T04:01:07;2.53;;;1.38;;
73276;SDS011;61501;43.316;5.372;2023-08-06T04:03:33;2.45;;;1.20;;
73276;SDS011;61501;43.316;5.372;2023-08-06T04:05:59;2.00;;;1.00;;
73276;SDS011;61501;43.316;5.372;2023-08-06T04:08:26;2.55;;;1.30;;
73276;SDS011;61501;43.316;5.372;2023-08-06T04:10:52;3.33;;;1.33;;
73276;SDS011;61501;43.316;5.372;2023-08-06T04:13:18;3.33;;;1.05;;
73276;SDS011;61501;43.316;5.372;2023-08-06T04:15:44;4.72;;;1.70;;
73276;SDS011;61501;43.316;5.372;2023-08-06T04:18:09;3.38;;;1.35;;
73276;SDS011;61501;43.316;5.372;2023-08-06T04:20:42;2.53;;;1.20;;
73276;SDS011;61501;43.316;5.372;2023-08-06T04:23:09;2.80;;;1.52;;
73276;SDS011;61501;43.316;5.372;2023-08-06T04:25:34;3.80;;;1.15;;
73276;SDS011;61501;43.316;5.372;2023-08-06T04:28:00;2.97;;;1.25;;
73276;SDS011;61501;43.316;5.372;2023-08-06T04:30:25;4.32;;;1.60;;
73276;SDS011;61501;43.316;5.372;2023-08-06T04:32:51;2.42;;;1.30;;
73276;SDS011;61501;43.316;5.372;2023-08-06T04:35:17;2.40;;;1.00;;
73276;SDS011;61501;43.316;5.372;2023-08-06T04:37:42;1.98;;;1.15;;
73276;SDS011;61501;43.316;5.372;2023-08-06T04:40:08;2.60;;;1.17;;
73276;SDS011;61501;43.316;5.372;2023-08-06T04:42:34;3.05;;;1.20;;
73276;SDS011;61501;43.316;5.372;2023-08-06T04:45:01;2.67;;;1.30;;
73276;SDS011;61501;43.316;5.372;2023-08-06T04:47:27;2.50;;;1.20;;
73276;SDS011;61501;43.316;5.372;2023-08-06T04:49:52;2.63;;;1.20;;
73276;SDS011;61501;43.316;5.372;2023-08-06T04:52:18;3.17;;;1.10;;
73276;SDS011;61501;43.316;5.372;2023-08-06T04:54:44;5.68;;;1.60;;
73276;SDS011;61501;43.316;5.372;2023-08-06T04:57:09;2.75;;;1.52;;
73276;SDS011;61501;43.316;5.372;2023-08-06T04:59:35;2.35;;;1.27;;
73276;SDS011;61501;43.316;5.372;2023-08-06T05:02:01;1.73;;;1.20;;
73276;SDS011;61501;43.316;5.372;2023-08-06T05:04:27;3.17;;;1.20;;
73276;SDS011;61501;43.316;5.372;2023-08-06T05:06:53;2.35;;;1.35;;
73276;SDS011;61501;43.316;5.372;2023-08-06T05:09:19;2.35;;;1.20;;
73276;SDS011;61501;43.316;5.372;2023-08-06T05:11:46;3.47;;;1.80;;
73276;SDS011;61501;43.316;5.372;2023-08-06T05:14:12;5.20;;;1.98;;
73276;SDS011;61501;43.316;5.372;2023-08-06T05:16:37;3.33;;;1.95;;
73276;SDS011;61501;43.316;5.372;2023-08-06T05:19:03;2.88;;;1.92;;
73276;SDS011;61501;43.316;5.372;2023-08-06T05:21:28;4.65;;;2.05;;
73276;SDS011;61501;43.316;5.372;2023-08-06T05:23:54;3.20;;;1.45;;
73276;SDS011;61501;43.316;5.372;2023-08-06T05:26:20;3.67;;;1.38;;
73276;SDS011;61501;43.316;5.372;2023-08-06T05:28:45;5.90;;;1.90;;
73276;SDS011;61501;43.316;5.372;2023-08-06T05:31:11;3.22;;;1.63;;
73276;SDS011;61501;43.316;5.372;2023-08-06T05:33:37;5.10;;;1.90;;
73276;SDS011;61501;43.316;5.372;2023-08-06T05:36:03;4.63;;;2.20;;
73276;SDS011;61501;43.316;5.372;2023-08-06T05:38:29;5.03;;;2.42;;
73276;SDS011;61501;43.316;5.372;2023-08-06T05:40:55;3.85;;;1.70;;
73276;SDS011;61501;43.316;5.372;2023-08-06T05:43:21;2.78;;;1.70;;
73276;SDS011;61501;43.316;5.372;2023-08-06T05:45:49;4.97;;;1.50;;
73276;SDS011;61501;43.316;5.372;2023-08-06T05:48:15;3.40;;;1.65;;
73276;SDS011;61501;43.316;5.372;2023-08-06T05:50:41;3.45;;;1.30;;
73276;SDS011;61501;43.316;5.372;2023-08-06T05:53:06;2.55;;;1.30;;
73276;SDS011;61501;43.316;5.372;2023-08-06T05:55:32;4.15;;;1.40;;
73276;SDS011;61501;43.316;5.372;2023-08-06T05:57:59;2.80;;;1.58;;
73276;SDS011;61501;43.316;5.372;2023-08-06T06:00:25;4.72;;;1.75;;
73276;SDS011;61501;43.316;5.372;2023-08-06T06:02:50;4.05;;;1.48;;
73276;SDS011;61501;43.316;5.372;2023-08-06T06:05:16;2.40;;;1.13;;
73276;SDS011;61501;43.316;5.372;2023-08-06T06:07:41;3.53;;;1.30;;
73276;SDS011;61501;43.316;5.372;2023-08-06T06:10:07;3.35;;;1.60;;
73276;SDS011;61501;43.316;5.372;2023-08-06T06:12:33;4.72;;;1.55;;
73276;SDS011;61501;43.316;5.372;2023-08-06T06:14:59;2.28;;;1.20;;
73276;SDS011;61501;43.316;5.372;2023-08-06T06:17:25;3.63;;;1.55;;
73276;SDS011;61501;43.316;5.372;2023-08-06T06:19:54;3.25;;;1.85;;
73276;SDS011;61501;43.316;5.372;2023-08-06T06:22:20;3.05;;;1.73;;
73276;SDS011;61501;43.316;5.372;2023-08-06T06:24:45;5.68;;;1.60;;
73276;SDS011;61501;43.316;5.372;2023-08-06T06:27:11;3.78;;;1.50;;
73276;SDS011;61501;43.316;5.372;2023-08-06T06:29:37;3.85;;;1.77;;
73276;SDS011;61501;43.316;5.372;2023-08-06T06:32:02;2.90;;;1.40;;
73276;SDS011;61501;43.316;5.372;2023-08-06T06:34:28;3.20;;;1.52;;
73276;SDS011;61501;43.316;5.372;2023-08-06T06:36:54;3.50;;;1.17;;
73276;SDS011;61501;43.316;5.372;2023-08-06T06:39:20;4.65;;;1.60;;
73276;SDS011;61501;43.316;5.372;2023-08-06T06:41:46;4.25;;;1.40;;
73276;SDS011;61501;43.316;5.372;2023-08-06T06:44:12;3.88;;;1.80;;
73276;SDS011;61501;43.316;5.372;2023-08-06T06:46:38;5.28;;;1.67;;
73276;SDS011;61501;43.316;5.372;2023-08-06T06:49:04;2.50;;;1.40;;
73276;SDS011;61501;43.316;5.372;2023-08-06T06:51:30;3.75;;;1.73;;
73276;SDS011;61501;43.316;5.372;2023-08-06T06:53:56;3.63;;;1.65;;
73276;SDS011;61501;43.316;5.372;2023-08-06T06:56:22;4.07;;;1.52;;
73276;SDS011;61501;43.316;5.372;2023-08-06T06:58:48;3.47;;;1.55;;
73276;SDS011;61501;43.316;5.372;2023-08-06T07:01:14;5.57;;;1.73;;
73276;SDS011;61501;43.316;5.372;2023-08-06T07:03:39;6.00;;;1.75;;
73276;SDS011;61501;43.316;5.372;2023-08-06T07:06:06;4.22;;;1.50;;
73276;SDS011;61501;43.316;5.372;2023-08-06T07:08:31;4.68;;;1.60;;
73276;SDS011;61501;43.316;5.372;2023-08-06T07:11:01;4.88;;;1.95;;
73276;SDS011;61501;43.316;5.372;2023-08-06T07:13:30;6.90;;;1.95;;
73276;SDS011;61501;43.316;5.372;2023-08-06T07:15:56;4.80;;;1.50;;
73276;SDS011;61501;43.316;5.372;2023-08-06T07:18:22;4.93;;;2.22;;
73276;SDS011;61501;43.316;5.372;2023-08-06T07:20:52;7.10;;;2.08;;
73276;SDS011;61501;43.316;5.372;2023-08-06T07:23:22;4.78;;;1.80;;
73276;SDS011;61501;43.316;5.372;2023-08-06T07:25:49;6.40;;;2.03;;
73276;SDS011;61501;43.316;5.372;2023-08-06T07:28:18;4.05;;;1.95;;
73276;SDS011;61501;43.316;5.372;2023-08-06T07:30:44;4.97;;;1.70;;
73276;SDS011;61501;43.316;5.372;2023-08-06T07:33:10;5.32;;;2.08;;
73276;SDS011;61501;43.316;5.372;2023-08-06T07:35:37;4.10;;;1.65;;
73276;SDS011;61501;43.316;5.372;2023-08-06T07:38:03;5.40;;;1.80;;
73276;SDS011;61501;43.316;5.372;2023-08-06T07:40:29;6.60;;;2.45;;
73276;SDS011;61501;43.316;5.372;2023-08-06T07:42:55;4.88;;;1.95;;
73276;SDS011;61501;43.316;5.372;2023-08-06T07:45:21;4.60;;;1.65;;
73276;SDS011;61501;43.316;5.372;2023-08-06T07:47:46;4.93;;;1.85;;
73276;SDS011;61501;43.316;5.372;2023-08-06T07:50:16;4.70;;;1.67;;
73276;SDS011;61501;43.316;5.372;2023-08-06T07:52:41;6.35;;;1.90;;
73276;SDS011;61501;43.316;5.372;2023-08-06T07:55:07;6.38;;;2.40;;
73276;SDS011;61501;43.316;5.372;2023-08-06T07:57:33;4.88;;;2.35;;
73276;SDS011;61501;43.316;5.372;2023-08-06T07:59:59;7.30;;;2.40;;
73276;SDS011;61501;43.316;5.372;2023-08-06T08:02:26;7.60;;;2.00;;
73276;SDS011;61501;43.316;5.372;2023-08-06T08:04:52;3.83;;;1.90;;
73276;SDS011;61501;43.316;5.372;2023-08-06T08:07:18;7.57;;;2.17;;
73276;SDS011;61501;43.316;5.372;2023-08-06T08:09:44;5.97;;;2.10;;
73276;SDS011;61501;43.316;5.372;2023-08-06T08:12:09;6.95;;;2.22;;
73276;SDS011;61501;43.316;5.372;2023-08-06T08:14:35;4.03;;;1.90;;
73276;SDS011;61501;43.316;5.372;2023-08-06T08:17:02;4.32;;;2.03;;
73276;SDS011;61501;43.316;5.372;2023-08-06T08:19:28;4.78;;;1.85;;
73276;SDS011;61501;43.316;5.372;2023-08-06T08:21:54;6.78;;;2.30;;
73276;SDS011;61501;43.316;5.372;2023-08-06T08:24:20;6.90;;;1.98;;
73276;SDS011;61501;43.316;5.372;2023-08-06T08:26:49;3.88;;;1.85;;
73276;SDS011;61501;43.316;5.372;2023-08-06T08:29:18;4.70;;;2.10;;
73276;SDS011;61501;43.316;5.372;2023-08-06T08:31:44;7.30;;;2.35;;
73276;SDS011;61501;43.316;5.372;2023-08-06T08:34:10;5.85;;;2.40;;
73276;SDS011;61501;43.316;5.372;2023-08-06T08:36:36;5.28;;;2.88;;
73276;SDS011;61501;43.316;5.372;2023-08-06T08:39:02;7.78;;;2.70;;
73276;SDS011;61501;43.316;5.372;2023-08-06T08:41:31;5.20;;;2.10;;
73276;SDS011;61501;43.316;5.372;2023-08-06T08:43:58;9.25;;;2.72;;
73276;SDS011;61501;43.316;5.372;2023-08-06T08:46:31;5.70;;;2.42;;
73276;SDS011;61501;43.316;5.372;2023-08-06T08:48:58;5.60;;;2.17;;
73276;SDS011;61501;43.316;5.372;2023-08-06T08:51:25;8.98;;;2.42;;
73276;SDS011;61501;43.316;5.372;2023-08-06T08:53:55;6.47;;;2.45;;
73276;SDS011;61501;43.316;5.372;2023-08-06T08:56:24;6.63;;;2.58;;
73276;SDS011;61501;43.316;5.372;2023-08-06T08:58:50;7.82;;;1.83;;
73276;SDS011;61501;43.316;5.372;2023-08-06T09:01:20;9.10;;;2.03;;
73276;SDS011;61501;43.316;5.372;2023-08-06T09:03:47;3.70;;;1.50;;
73276;SDS011;61501;43.316;5.372;2023-08-06T09:06:13;7.53;;;2.30;;
73276;SDS011;61501;43.316;5.372;2023-08-06T09:08:48;7.97;;;2.30;;
73276;SDS011;61501;43.316;5.372;2023-08-06T09:11:18;5.07;;;1.92;;
73276;SDS011;61501;43.316;5.372;2023-08-06T09:13:45;5.32;;;1.92;;
73276;SDS011;61501;43.316;5.372;2023-08-06T09:16:12;4.55;;;1.95;;
73276;SDS011;61501;43.316;5.372;2023-08-06T09:18:38;5.88;;;2.25;;
73276;SDS011;61501;43.316;5.372;2023-08-06T09:21:05;8.55;;;2.05;;
73276;SDS011;61501;43.316;5.372;2023-08-06T09:23:31;8.57;;;1.90;;
73276;SDS011;61501;43.316;5.372;2023-08-06T09:25:58;6.30;;;2.25;;
73276;SDS011;61501;43.316;5.372;2023-08-06T09:28:24;4.55;;;2.33;;
73276;SDS011;61501;43.316;5.372;2023-08-06T09:31:01;5.50;;;2.22;;
73276;SDS011;61501;43.316;5.372;2023-08-06T09:33:29;5.38;;;2.10;;
73276;SDS011;61501;43.316;5.372;2023-08-06T09:35:54;7.60;;;2.92;;
73276;SDS011;61501;43.316;5.372;2023-08-06T09:38:20;5.22;;;1.80;;
73276;SDS011;61501;43.316;5.372;2023-08-06T09:40:46;3.97;;;1.85;;
73276;SDS011;61501;43.316;5.372;2023-08-06T09:43:12;5.75;;;1.70;;
73276;SDS011;61501;43.316;5.372;2023-08-06T09:45:38;5.30;;;1.98;;
73276;SDS011;61501;43.316;5.372;2023-08-06T09:48:05;10.20;;;2.40;;
73276;SDS011;61501;43.316;5.372;2023-08-06T09:50:32;6.00;;;1.80;;
73276;SDS011;61501;43.316;5.372;2023-08-06T09:53:01;9.07;;;1.80;;
73276;SDS011;61501;43.316;5.372;2023-08-06T09:55:28;9.15;;;2.13;;
73276;SDS011;61501;43.316;5.372;2023-08-06T09:57:54;4.60;;;1.92;;
73276;SDS011;61501;43.316;5.372;2023-08-06T10:00:20;5.68;;;2.22;;
73276;SDS011;61501;43.316;5.372;2023-08-06T10:02:48;11.43;;;2.47;;
73276;SDS011;61501;43.316;5.372;2023-08-06T10:05:16;9.70;;;2.05;;
73276;SDS011;61501;43.316;5.372;2023-08-06T10:07:43;5.93;;;1.90;;
73276;SDS011;61501;43.316;5.372;2023-08-06T10:10:11;5.55;;;2.25;;
73276;SDS011;61501;43.316;5.372;2023-08-06T10:12:40;4.85;;;1.70;;
73276;SDS011;61501;43.316;5.372;2023-08-06T10:15:12;10.48;;;2.00;;
73276;SDS011;61501;43.316;5.372;2023-08-06T10:17:41;5.50;;;2.00;;
73276;SDS011;61501;43.316;5.372;2023-08-06T10:20:10;5.35;;;2.05;;
73276;SDS011;61501;43.316;5.372;2023-08-06T10:22:38;4.95;;;1.83;;
73276;SDS011;61501;43.316;5.372;2023-08-06T10:25:09;6.43;;;1.90;;
73276;SDS011;61501;43.316;5.372;2023-08-06T10:27:36;6.47;;;2.30;;
73276;SDS011;61501;43.316;5.372;2023-08-06T10:32:47;5.13;;;1.67;;
73276;SDS011;61501;43.316;5.372;2023-08-06T10:35:30;5.57;;;1.98;;
73276;SDS011;61501;43.316;5.372;2023-08-06T10:43:25;7.70;;;1.65;;
73276;SDS011;61501;43.316;5.372;2023-08-06T10:45:55;5.03;;;1.52;;
73276;SDS011;61501;43.316;5.372;2023-08-06T10:48:34;4.82;;;1.52;;
73276;SDS011;61501;43.316;5.372;2023-08-06T10:51:01;6.68;;;2.40;;
73276;SDS011;61501;43.316;5.372;2023-08-06T10:53:28;6.18;;;2.15;;
73276;SDS011;61501;43.316;5.372;2023-08-06T10:55:54;8.45;;;2.88;;
73276;SDS011;61501;43.316;5.372;2023-08-06T10:58:19;6.85;;;2.90;;
73276;SDS011;61501;43.316;5.372;2023-08-06T11:00:45;5.95;;;3.50;;
73276;SDS011;61501;43.316;5.372;2023-08-06T11:03:11;8.05;;;3.10;;
73276;SDS011;61501;43.316;5.372;2023-08-06T11:05:37;5.57;;;2.45;;
73276;SDS011;61501;43.316;5.372;2023-08-06T11:08:04;6.80;;;2.58;;
73276;SDS011;61501;43.316;5.372;2023-08-06T11:10:32;4.57;;;1.90;;
73276;SDS011;61501;43.316;5.372;2023-08-06T11:13:01;4.68;;;1.90;;
73276;SDS011;61501;43.316;5.372;2023-08-06T11:15:28;7.60;;;1.75;;
73276;SDS011;61501;43.316;5.372;2023-08-06T11:17:55;4.47;;;1.33;;
73276;SDS011;61501;43.316;5.372;2023-08-06T11:20:20;3.75;;;1.30;;
73276;SDS011;61501;43.316;5.372;2023-08-06T11:22:47;4.15;;;1.52;;
73276;SDS011;61501;43.316;5.372;2023-08-06T11:25:13;4.25;;;1.10;;
73276;SDS011;61501;43.316;5.372;2023-08-06T11:27:38;3.90;;;1.15;;
73276;SDS011;61501;43.316;5.372;2023-08-06T11:30:04;3.88;;;1.30;;
73276;SDS011;61501;43.316;5.372;2023-08-06T11:32:30;6.75;;;1.60;;
73276;SDS011;61501;43.316;5.372;2023-08-06T11:34:57;6.25;;;1.50;;
73276;SDS011;61501;43.316;5.372;2023-08-06T11:37:23;3.80;;;1.15;;
73276;SDS011;61501;43.316;5.372;2023-08-06T11:39:50;6.65;;;1.50;;
73276;SDS011;61501;43.316;5.372;2023-08-06T11:42:16;6.63;;;1.20;;
73276;SDS011;61501;43.316;5.372;2023-08-06T11:44:41;5.45;;;1.00;;
73276;SDS011;61501;43.316;5.372;2023-08-06T11:47:12;1.75;;;0.98;;
73276;SDS011;61501;43.316;5.372;2023-08-06T11:49:42;2.22;;;1.00;;
73276;SDS011;61501;43.316;5.372;2023-08-06T11:55:07;2.33;;;1.40;;
73276;SDS011;61501;43.316;5.372;2023-08-06T12:00:13;2.50;;;1.30;;
73276;SDS011;61501;43.316;5.372;2023-08-06T12:02:43;3.60;;;1.10;;
73276;SDS011;61501;43.316;5.372;2023-08-06T12:05:14;4.70;;;1.83;;
73276;SDS011;61501;43.316;5.372;2023-08-06T12:07:45;2.25;;;1.00;;
73276;SDS011;61501;43.316;5.372;2023-08-06T12:10:15;5.10;;;1.20;;
73276;SDS011;61501;43.316;5.372;2023-08-06T12:12:41;4.85;;;1.20;;
73276;SDS011;61501;43.316;5.372;2023-08-06T12:15:08;3.28;;;1.02;;
73276;SDS011;61501;43.316;5.372;2023-08-06T12:17:35;2.28;;;0.88;;
73276;SDS011;61501;43.316;5.372;2023-08-06T12:20:01;2.17;;;0.80;;
73276;SDS011;61501;43.316;5.372;2023-08-06T12:22:29;2.53;;;0.95;;
73276;SDS011;61501;43.316;5.372;2023-08-06T12:25:00;1.70;;;0.93;;
73276;SDS011;61501;43.316;5.372;2023-08-06T12:27:34;4.75;;;1.13;;
73276;SDS011;61501;43.316;5.372;2023-08-06T12:30:00;3.53;;;1.00;;
73276;SDS011;61501;43.316;5.372;2023-08-06T12:32:26;4.10;;;0.82;;
73276;SDS011;61501;43.316;5.372;2023-08-06T12:34:51;4.00;;;1.30;;
73276;SDS011;61501;43.316;5.372;2023-08-06T12:37:17;3.47;;;0.90;;
73276;SDS011;61501;43.316;5.372;2023-08-06T12:39:43;4.78;;;1.05;;
73276;SDS011;61501;43.316;5.372;2023-08-06T12:42:08;4.68;;;0.98;;
73276;SDS011;61501;43.316;5.372;2023-08-06T12:44:35;5.03;;;1.27;;
73276;SDS011;61501;43.316;5.372;2023-08-06T12:47:01;4.13;;;1.00;;
73276;SDS011;61501;43.316;5.372;2023-08-06T12:49:27;5.43;;;0.82;;
73276;SDS011;61501;43.316;5.372;2023-08-06T12:51:53;2.50;;;0.85;;
73276;SDS011;61501;43.316;5.372;2023-08-06T12:54:20;2.28;;;0.80;;
73276;SDS011;61501;43.316;5.372;2023-08-06T12:56:46;2.88;;;1.08;;
73276;SDS011;61501;43.316;5.372;2023-08-06T12:59:15;2.22;;;0.85;;
73276;SDS011;61501;43.316;5.372;2023-08-06T13:01:42;2.60;;;0.82;;
73276;SDS011;61501;43.316;5.372;2023-08-06T13:04:08;3.55;;;0.70;;
73276;SDS011;61501;43.316;5.372;2023-08-06T13:06:34;2.75;;;1.10;;
73276;SDS011;61501;43.316;5.372;2023-08-06T13:09:10;1.88;;;0.95;;
73276;SDS011;61501;43.316;5.372;2023-08-06T13:11:37;4.85;;;1.40;;
73276;SDS011;61501;43.316;5.372;2023-08-06T13:14:04;2.75;;;1.05;;
73276;SDS011;61501;43.316;5.372;2023-08-06T13:16:35;3.35;;;1.05;;
73276;SDS011;61501;43.316;5.372;2023-08-06T13:19:02;7.03;;;1.23;;
73276;SDS011;61501;43.316;5.372;2023-08-06T13:21:35;1.67;;;1.10;;
73276;SDS011;61501;43.316;5.372;2023-08-06T13:24:21;5.22;;;1.67;;
73276;SDS011;61501;43.316;5.372;2023-08-06T13:26:46;2.70;;;1.20;;
73276;SDS011;61501;43.316;5.372;2023-08-06T13:29:12;2.65;;;1.20;;
73276;SDS011;61501;43.316;5.372;2023-08-06T13:31:37;3.75;;;1.20;;
73276;SDS011;61501;43.316;5.372;2023-08-06T13:34:03;2.80;;;1.15;;
73276;SDS011;61501;43.316;5.372;2023-08-06T13:36:29;2.70;;;0.85;;
73276;SDS011;61501;43.316;5.372;2023-08-06T13:38:56;3.35;;;0.95;;
73276;SDS011;61501;43.316;5.372;2023-08-06T13:41:22;1.48;;;0.80;;
73276;SDS011;61501;43.316;5.372;2023-08-06T13:43:47;1.92;;;1.00;;
73276;SDS011;61501;43.316;5.372;2023-08-06T13:46:13;2.80;;;0.90;;
73276;SDS011;61501;43.316;5.372;2023-08-06T13:48:43;5.93;;;1.05;;
73276;SDS011;61501;43.316;5.372;2023-08-06T13:51:10;4.43;;;1.15;;
73276;SDS011;61501;43.316;5.372;2023-08-06T13:53:36;4.45;;;1.25;;
73276;SDS011;61501;43.316;5.372;2023-08-06T13:56:02;3.60;;;1.08;;
73276;SDS011;61501;43.316;5.372;2023-08-06T13:58:29;3.05;;;1.10;;
73276;SDS011;61501;43.316;5.372;2023-08-06T14:00:54;5.13;;;1.48;;
73276;SDS011;61501;43.316;5.372;2023-08-06T14:03:21;3.42;;;1.17;;
73276;SDS011;61501;43.316;5.372;2023-08-06T14:05:47;5.97;;;1.40;;
73276;SDS011;61501;43.316;5.372;2023-08-06T14:08:19;2.15;;;1.00;;
73276;SDS011;61501;43.316;5.372;2023-08-06T14:10:45;4.32;;;1.10;;
73276;SDS011;61501;43.316;5.372;2023-08-06T14:13:10;4.75;;;1.30;;
73276;SDS011;61501;43.316;5.372;2023-08-06T14:16:05;2.63;;;1.13;;
73276;SDS011;61501;43.316;5.372;2023-08-06T14:18:33;3.65;;;1.23;;
73276;SDS011;61501;43.316;5.372;2023-08-06T14:21:00;8.40;;;1.00;;
73276;SDS011;61501;43.316;5.372;2023-08-06T14:23:26;5.07;;;1.20;;
73276;SDS011;61501;43.316;5.372;2023-08-06T14:25:51;8.13;;;1.55;;
73276;SDS011;61501;43.316;5.372;2023-08-06T14:28:17;7.53;;;1.48;;
73276;SDS011;61501;43.316;5.372;2023-08-06T14:30:43;3.60;;;1.13;;
73276;SDS011;61501;43.316;5.372;2023-08-06T14:33:08;6.03;;;1.45;;
73276;SDS011;61501;43.316;5.372;2023-08-06T14:35:34;3.10;;;1.15;;
73276;SDS011;61501;43.316;5.372;2023-08-06T14:37:59;2.55;;;1.27;;
73276;SDS011;61501;43.316;5.372;2023-08-06T14:40:25;7.53;;;1.50;;
73276;SDS011;61501;43.316;5.372;2023-08-06T14:42:53;5.22;;;2.10;;
73276;SDS011;61501;43.316;5.372;2023-08-06T14:45:19;6.55;;;2.75;;
73276;SDS011;61501;43.316;5.372;2023-08-06T14:47:44;5.10;;;2.92;;
73276;SDS011;61501;43.316;5.372;2023-08-06T14:50:10;3.42;;;2.08;;
73276;SDS011;61501;43.316;5.372;2023-08-06T14:52:36;9.18;;;3.08;;
73276;SDS011;61501;43.316;5.372;2023-08-06T14:55:01;7.95;;;6.32;;
73276;SDS011;61501;43.316;5.372;2023-08-06T14:57:28;10.73;;;5.38;;
73276;SDS011;61501;43.316;5.372;2023-08-06T14:59:54;8.10;;;3.00;;
73276;SDS011;61501;43.316;5.372;2023-08-06T15:02:20;4.25;;;1.98;;
73276;SDS011;61501;43.316;5.372;2023-08-06T15:04:46;4.93;;;1.42;;